createdAt,value
2023-04-18T00:01:30.520Z,12.43
2023-04-18T00:03:58.029Z,12.41
2023-04-18T00:06:25.915Z,12.37
2023-04-18T00:08:52.514Z,12.37
2023-04-18T00:11:19.016Z,12.31
2023-04-18T00:13:47.329Z,12.37
2023-04-18T00:16:13.925Z,12.36
2023-04-18T00:18:40.686Z,12.35
2023-04-18T00:21:08.605Z,12.28
2023-04-18T00:23:35.274Z,12.19
2023-04-18T00:26:02.127Z,12.26
2023-04-18T00:28:28.624Z,12.26
2023-04-18T00:30:55.158Z,12.21
2023-04-18T00:33:21.707Z,12.29
2023-04-18T00:35:51.572Z,12.22
2023-04-18T00:38:18.171Z,12.15
2023-04-18T00:40:44.676Z,12.01
2023-04-18T00:43:13.660Z,12.04
2023-04-18T00:45:40.771Z,12.22
2023-04-18T00:48:07.463Z,12.26
2023-04-18T00:50:34.088Z,12.16
2023-04-18T00:53:01.492Z,12.22
2023-04-18T00:55:28.899Z,12.31
2023-04-18T00:57:56.112Z,12.26
2023-04-18T01:00:24.526Z,12.34
2023-04-18T01:02:53.294Z,12.32
2023-04-18T01:05:21.339Z,12.01
2023-04-18T01:07:48.237Z,12.14
2023-04-18T01:10:14.736Z,12.21
2023-04-18T01:12:41.771Z,12.09
2023-04-18T01:15:09.166Z,12.22
2023-04-18T01:17:36.465Z,12.20
2023-04-18T01:20:06.307Z,12.15
2023-04-18T01:22:33.167Z,12.01
2023-04-18T01:24:59.714Z,11.72
2023-04-18T01:27:26.258Z,11.30
2023-04-18T01:29:52.813Z,11.59
2023-04-18T01:32:20.539Z,11.64
2023-04-18T01:34:47.576Z,11.47
2023-04-18T01:37:14.168Z,11.33
2023-04-18T01:39:40.761Z,11.61
2023-04-18T01:42:07.278Z,11.71
2023-04-18T01:44:33.795Z,11.78
2023-04-18T01:47:00.492Z,11.82
2023-04-18T01:49:27.035Z,11.95
2023-04-18T01:51:53.512Z,11.95
2023-04-18T01:54:21.280Z,11.88
2023-04-18T01:56:47.831Z,11.79
2023-04-18T01:59:14.340Z,11.66
2023-04-18T02:01:40.905Z,11.71
2023-04-18T02:04:08.015Z,11.43
2023-04-18T02:06:34.602Z,11.50
2023-04-18T02:09:01.191Z,11.30
2023-04-18T02:11:27.812Z,11.18
2023-04-18T02:13:54.766Z,10.96
2023-04-18T02:16:21.752Z,10.97
2023-04-18T02:18:49.593Z,11.19
2023-04-18T02:21:16.223Z,11.00
2023-04-18T02:23:42.720Z,10.99
2023-04-18T02:26:09.292Z,11.22
2023-04-18T02:28:38.859Z,10.97
2023-04-18T02:31:06.217Z,11.03
2023-04-18T02:33:34.087Z,11.14
2023-04-18T02:36:01.655Z,10.94
2023-04-18T02:38:28.492Z,11.11
2023-04-18T02:40:54.992Z,11.28
2023-04-18T02:43:21.972Z,11.05
2023-04-18T02:45:48.518Z,11.10
2023-04-18T02:48:15.193Z,11.06
2023-04-18T02:50:41.781Z,10.90
2023-04-18T02:53:08.302Z,11.07
2023-04-18T02:55:49.025Z,10.64
2023-04-18T02:58:16.280Z,10.65
2023-04-18T03:01:00.310Z,10.90
2023-04-18T03:03:53.584Z,10.89
2023-04-18T03:06:42.696Z,10.96
2023-04-18T03:09:09.615Z,11.13
2023-04-18T03:11:41.042Z,11.00
2023-04-18T03:14:08.163Z,10.91
2023-04-18T03:16:42.199Z,10.70
2023-04-18T03:19:12.221Z,10.70
2023-04-18T03:21:38.883Z,10.77
2023-04-18T03:24:05.805Z,10.86
2023-04-18T03:26:34.239Z,10.99
2023-04-18T03:29:02.790Z,10.96
2023-04-18T03:31:29.334Z,10.71
2023-04-18T03:33:56.625Z,10.83
2023-04-18T03:36:25.406Z,10.70
2023-04-18T03:38:54.148Z,10.72
2023-04-18T03:41:20.636Z,10.99
2023-04-18T03:43:47.156Z,11.07
2023-04-18T03:46:13.747Z,11.14
2023-04-18T03:48:40.424Z,10.90
2023-04-18T03:51:10.306Z,11.10
2023-04-18T03:53:38.235Z,11.14
2023-04-18T03:56:04.900Z,11.28
2023-04-18T03:58:49.754Z,11.01
2023-04-18T04:01:18.130Z,11.06
2023-04-18T04:03:44.757Z,11.11
2023-04-18T04:06:11.537Z,11.09
2023-04-18T04:08:38.477Z,10.83
2023-04-18T04:11:05.179Z,10.86
2023-04-18T04:13:32.973Z,10.74
2023-04-18T04:15:59.609Z,10.77
2023-04-18T04:18:30.991Z,11.08
2023-04-18T04:21:00.413Z,11.11
2023-04-18T04:23:42.069Z,11.03
2023-04-18T04:26:10.719Z,11.06
2023-04-18T04:28:46.473Z,11.24
2023-04-18T04:31:16.409Z,11.03
2023-04-18T04:33:43.648Z,11.30
2023-04-18T04:36:18.593Z,11.09
2023-04-18T04:38:47.279Z,11.29
2023-04-18T04:41:14.001Z,11.39
2023-04-18T04:43:41.234Z,11.29
2023-04-18T04:46:08.984Z,11.29
2023-04-18T04:48:35.552Z,11.04
2023-04-18T04:51:03.709Z,11.22
2023-04-18T04:53:30.531Z,11.24
2023-04-18T04:55:58.443Z,11.09
2023-04-18T04:58:25.197Z,10.89
2023-04-18T05:01:12.958Z,11.09
2023-04-18T05:03:40.672Z,11.07
2023-04-18T05:06:07.391Z,11.07
2023-04-18T05:08:34.650Z,11.16
2023-04-18T05:11:01.939Z,11.37
2023-04-18T05:13:28.409Z,11.41
2023-04-18T05:15:55.600Z,11.44
2023-04-18T05:18:22.125Z,11.43
2023-04-18T05:20:49.324Z,11.06
2023-04-18T05:23:16.227Z,11.03
2023-04-18T05:25:42.716Z,10.73
2023-04-18T05:28:09.585Z,11.01
2023-04-18T05:30:36.189Z,10.84
2023-04-18T05:33:02.772Z,10.86
2023-04-18T05:35:29.241Z,10.94
2023-04-18T05:37:55.779Z,11.05
2023-04-18T05:40:22.693Z,11.18
2023-04-18T05:42:49.214Z,10.89
2023-04-18T05:45:15.792Z,11.11
2023-04-18T05:47:42.340Z,11.34
2023-04-18T05:50:09.140Z,11.50
2023-04-18T05:52:37.149Z,11.14
2023-04-18T05:55:03.672Z,11.24
2023-04-18T05:57:30.205Z,10.93
2023-04-18T05:59:56.850Z,10.95
2023-04-18T06:02:23.642Z,10.86
2023-04-18T06:04:50.386Z,11.16
2023-04-18T06:07:17.213Z,11.28
2023-04-18T06:09:43.711Z,11.05
2023-04-18T06:12:10.809Z,11.19
2023-04-18T06:14:37.410Z,10.73
2023-04-18T06:17:03.932Z,10.58
2023-04-18T06:19:30.458Z,10.86
2023-04-18T06:21:56.956Z,10.73
2023-04-18T06:24:23.791Z,10.89
2023-04-18T06:26:50.345Z,11.04
2023-04-18T06:29:18.099Z,10.92
2023-04-18T06:31:46.588Z,9.91
2023-04-18T06:34:13.808Z,10.56
2023-04-18T06:36:40.526Z,10.95
2023-04-18T06:39:06.989Z,11.06
2023-04-18T06:41:33.523Z,11.24
2023-04-18T06:44:04.076Z,11.14
2023-04-18T06:46:32.106Z,11.53
2023-04-18T06:48:58.803Z,11.52
2023-04-18T06:51:25.270Z,11.70
2023-04-18T06:53:53.718Z,11.94
2023-04-18T06:56:20.773Z,12.04
2023-04-18T06:58:47.861Z,12.30
2023-04-18T07:01:14.460Z,12.26
2023-04-18T07:03:41.069Z,12.34
2023-04-18T07:06:08.893Z,12.20
2023-04-18T07:08:35.746Z,12.24
2023-04-18T07:11:02.360Z,12.51
2023-04-18T07:13:28.970Z,12.06
2023-04-18T07:15:55.560Z,12.13
2023-04-18T07:18:34.288Z,12.07
2023-04-18T07:21:43.265Z,12.18
2023-04-18T07:23:53.660Z,12.08
2023-04-18T07:26:20.495Z,12.16
2023-04-18T07:28:47.015Z,12.27
2023-04-18T07:31:14.415Z,12.48
2023-04-18T07:33:41.089Z,12.74
2023-04-18T07:36:07.703Z,12.41
2023-04-18T07:38:37.380Z,12.48
2023-04-18T07:41:03.964Z,12.58
2023-04-18T07:43:30.601Z,12.70
2023-04-18T07:45:57.174Z,12.73
2023-04-18T07:48:25.156Z,12.80
2023-04-18T07:50:51.584Z,12.79
2023-04-18T07:53:18.067Z,13.04
2023-04-18T07:55:45.290Z,13.35
2023-04-18T07:58:11.928Z,13.28
2023-04-18T08:00:39.211Z,13.45
2023-04-18T08:03:07.502Z,13.68
2023-04-18T08:05:34.917Z,13.52
2023-04-18T08:08:01.560Z,13.69
2023-04-18T08:10:28.184Z,13.38
2023-04-18T08:12:54.734Z,13.43
2023-04-18T08:15:21.277Z,13.68
2023-04-18T08:17:49.096Z,13.24
2023-04-18T08:20:15.733Z,13.56
2023-04-18T08:22:57.649Z,13.81
2023-04-18T08:25:31.568Z,13.98
2023-04-18T08:27:58.103Z,13.92
2023-04-18T08:30:24.626Z,13.93
2023-04-18T08:32:51.572Z,14.19
2023-04-18T08:35:18.568Z,14.09
2023-04-18T08:37:45.091Z,14.29
2023-04-18T08:40:11.854Z,14.16
2023-04-18T08:42:38.750Z,14.18
2023-04-18T08:45:09.450Z,14.19
2023-04-18T08:47:35.966Z,14.48
2023-04-18T08:50:02.566Z,14.44
2023-04-18T08:52:30.996Z,14.22
2023-04-18T08:54:57.557Z,14.62
2023-04-18T08:57:27.346Z,14.71
2023-04-18T08:59:54.485Z,14.63
2023-04-18T09:02:24.200Z,14.31
2023-04-18T09:04:53.520Z,14.56
2023-04-18T09:07:28.416Z,13.77
2023-04-18T09:09:59.826Z,13.91
2023-04-18T09:12:27.997Z,14.05
2023-04-18T09:14:59.585Z,13.87
2023-04-18T09:17:33.037Z,14.17
2023-04-18T09:20:01.081Z,14.38
2023-04-18T09:23:01.088Z,14.03
2023-04-18T09:25:34.873Z,13.77
2023-04-18T09:28:02.800Z,13.94
2023-04-18T09:30:37.869Z,14.38
2023-04-18T09:33:09.677Z,14.26
2023-04-18T09:35:37.659Z,14.48
2023-04-18T09:38:05.239Z,14.61
2023-04-18T09:40:32.485Z,14.92
2023-04-18T09:42:59.320Z,14.42
2023-04-18T09:45:26.514Z,14.74
2023-04-18T09:47:53.561Z,14.92
2023-04-18T09:50:20.814Z,14.60
2023-04-18T09:52:48.503Z,14.96
2023-04-18T09:55:17.503Z,15.08
2023-04-18T09:57:48.100Z,14.91
2023-04-18T10:00:26.355Z,14.68
2023-04-18T10:02:53.343Z,14.91
2023-04-18T10:05:21.425Z,14.80
2023-04-18T10:07:48.922Z,14.92
2023-04-18T10:10:15.796Z,14.95
2023-04-18T10:12:42.380Z,15.08
2023-04-18T10:15:10.004Z,15.13
2023-04-18T10:17:52.582Z,15.39
2023-04-18T10:20:29.147Z,15.39
2023-04-18T10:22:57.142Z,15.26
2023-04-18T10:25:38.870Z,15.40
2023-04-18T10:28:06.683Z,15.42
2023-04-18T10:30:42.245Z,15.39
2023-04-18T10:33:37.159Z,15.73
2023-04-18T10:36:09.074Z,15.29
2023-04-18T10:38:38.618Z,15.13
2023-04-18T10:41:28.450Z,15.16
2023-04-18T10:44:09.980Z,15.81
2023-04-18T10:46:39.991Z,15.55
2023-04-18T10:49:14.141Z,15.43
2023-04-18T10:51:41.150Z,15.55
2023-04-18T10:54:09.766Z,15.40
2023-04-18T10:56:36.604Z,15.51
2023-04-18T10:59:03.640Z,15.65
2023-04-18T11:01:32.893Z,15.94
2023-04-18T11:04:00.183Z,15.72
2023-04-18T11:06:27.648Z,15.76
2023-04-18T11:09:11.600Z,15.58
2023-04-18T11:11:38.155Z,15.90
2023-04-18T11:14:04.646Z,15.52
2023-04-18T11:16:32.952Z,15.82
2023-04-18T11:18:59.930Z,15.79
2023-04-18T11:21:30.419Z,15.66
2023-04-18T11:23:58.047Z,15.15
2023-04-18T11:26:29.017Z,15.39
2023-04-18T11:28:58.511Z,15.68
2023-04-18T11:31:26.147Z,15.97
2023-04-18T11:33:56.139Z,15.86
2023-04-18T11:36:22.714Z,14.99
2023-04-18T11:38:49.165Z,15.51
2023-04-18T11:41:16.032Z,15.06
2023-04-18T11:43:46.480Z,15.12
2023-04-18T11:46:13.818Z,15.29
2023-04-18T11:48:42.216Z,15.47
2023-04-18T11:51:32.273Z,15.89
2023-04-18T11:53:58.818Z,15.56
2023-04-18T11:56:25.414Z,15.50
2023-04-18T11:58:52.005Z,15.83
2023-04-18T12:01:20.493Z,15.41
2023-04-18T12:04:03.767Z,15.70
2023-04-18T12:06:52.119Z,15.71
2023-04-18T12:09:19.414Z,15.91
2023-04-18T12:11:58.078Z,15.83
2023-04-18T12:14:24.616Z,16.46
2023-04-18T12:16:52.049Z,16.80
2023-04-18T12:19:20.780Z,17.01
2023-04-18T12:22:01.578Z,17.29
2023-04-18T12:24:29.874Z,16.96
2023-04-18T12:26:58.082Z,17.17
2023-04-18T12:29:25.612Z,16.92
2023-04-18T12:31:52.230Z,16.75
2023-04-18T12:34:18.836Z,16.46
2023-04-18T12:36:45.988Z,16.47
2023-04-18T12:39:12.698Z,16.55
2023-04-18T12:41:39.563Z,16.89
2023-04-18T12:44:06.697Z,17.25
2023-04-18T12:46:33.347Z,17.25
2023-04-18T12:49:00.288Z,17.00
2023-04-18T12:51:29.043Z,17.07
2023-04-18T12:53:56.335Z,17.09
2023-04-18T12:56:22.822Z,17.12
2023-04-18T12:58:49.349Z,17.32
2023-04-18T13:01:16.495Z,17.34
2023-04-18T13:03:43.265Z,17.22
2023-04-18T13:06:09.836Z,17.30
2023-04-18T13:08:37.470Z,17.43
2023-04-18T13:11:04.623Z,17.32
2023-04-18T13:13:31.082Z,17.39
2023-04-18T13:15:57.577Z,17.75
2023-04-18T13:18:24.437Z,17.61
2023-04-18T13:20:51.537Z,17.30
2023-04-18T13:23:18.053Z,17.25
2023-04-18T13:25:44.964Z,17.10
2023-04-18T13:28:11.487Z,17.09
2023-04-18T13:30:38.020Z,16.89
2023-04-18T13:33:04.591Z,17.00
2023-04-18T13:35:31.240Z,16.84
2023-04-18T13:37:57.785Z,16.67
2023-04-18T13:40:25.098Z,17.03
2023-04-18T13:42:51.575Z,17.07
2023-04-18T13:45:18.714Z,17.11
2023-04-18T13:47:45.248Z,16.75
2023-04-18T13:50:11.873Z,16.39
2023-04-18T13:52:38.416Z,16.57
2023-04-18T13:55:05.384Z,16.31
2023-04-18T13:57:33.680Z,16.43
2023-04-18T14:00:00.346Z,16.18
2023-04-18T14:02:27.000Z,16.19
2023-04-18T14:04:54.852Z,16.30
2023-04-18T14:07:21.554Z,16.54
2023-04-18T14:09:48.184Z,16.50
2023-04-18T14:12:14.722Z,16.55
2023-04-18T14:14:41.826Z,16.85
2023-04-18T14:17:08.346Z,16.85
2023-04-18T14:19:35.040Z,16.93
2023-04-18T14:22:01.577Z,17.29
2023-04-18T14:24:28.157Z,17.18
2023-04-18T14:26:54.833Z,17.32
2023-04-18T14:29:21.390Z,17.24
2023-04-18T14:31:48.116Z,17.14
2023-04-18T14:34:14.887Z,17.12
2023-04-18T14:36:41.477Z,17.45
2023-04-18T14:39:08.352Z,17.43
2023-04-18T14:41:34.923Z,17.43
2023-04-18T14:44:02.164Z,17.66
2023-04-18T14:46:29.230Z,17.61
2023-04-18T14:48:56.872Z,17.61
2023-04-18T14:51:23.664Z,17.72
2023-04-18T14:53:50.252Z,17.53
2023-04-18T14:56:20.899Z,17.91
2023-04-18T14:58:47.595Z,17.71
2023-04-18T15:01:14.350Z,17.98
2023-04-18T15:03:41.000Z,18.01
2023-04-18T15:06:07.794Z,17.85
2023-04-18T15:08:34.398Z,17.40
2023-04-18T15:11:01.353Z,17.29
2023-04-18T15:13:28.003Z,17.33
2023-04-18T15:15:57.113Z,17.14
2023-04-18T15:18:23.638Z,17.35
2023-04-18T15:20:51.715Z,17.07
2023-04-18T15:23:18.219Z,16.86
2023-04-18T15:25:45.316Z,16.83
2023-04-18T15:28:15.993Z,16.45
2023-04-18T15:30:42.553Z,16.15
2023-04-18T15:33:09.006Z,16.30
2023-04-18T15:35:35.843Z,16.60
2023-04-18T15:38:02.390Z,16.64
2023-04-18T15:40:28.975Z,16.71
2023-04-18T15:42:57.840Z,16.64
2023-04-18T15:45:24.408Z,16.57
2023-04-18T15:47:51.544Z,16.19
2023-04-18T15:50:18.175Z,16.73
2023-04-18T15:52:44.655Z,16.76
2023-04-18T15:55:13.053Z,16.34
2023-04-18T15:57:40.279Z,16.23
2023-04-18T16:00:11.835Z,16.42
2023-04-18T16:02:38.582Z,16.71
2023-04-18T16:05:05.575Z,16.56
2023-04-18T16:07:32.176Z,16.81
2023-04-18T16:09:58.826Z,16.79
2023-04-18T16:12:25.409Z,16.74
2023-04-18T16:14:51.908Z,16.77
2023-04-18T16:17:18.438Z,16.66
2023-04-18T16:19:44.962Z,16.43
2023-04-18T16:22:12.364Z,16.75
2023-04-18T16:24:40.855Z,16.79
2023-04-18T16:27:08.590Z,17.02
2023-04-18T16:29:35.390Z,16.78
2023-04-18T16:32:01.913Z,16.91
2023-04-18T16:34:28.434Z,16.76
2023-04-18T16:36:55.734Z,16.53
2023-04-18T16:39:22.339Z,16.38
2023-04-18T16:41:48.876Z,16.35
2023-04-18T16:44:15.640Z,16.59
2023-04-18T16:46:42.481Z,16.62
2023-04-18T16:49:09.027Z,16.81
2023-04-18T16:51:37.149Z,16.65
2023-04-18T16:54:04.379Z,16.72
2023-04-18T16:56:30.803Z,16.61
2023-04-18T16:58:58.059Z,16.59
2023-04-18T17:01:24.628Z,16.42
2023-04-18T17:03:51.487Z,16.45
2023-04-18T17:06:19.374Z,16.57
2023-04-18T17:08:45.954Z,16.32
2023-04-18T17:11:12.487Z,16.38
2023-04-18T17:13:38.968Z,16.40
2023-04-18T17:16:06.820Z,16.30
2023-04-18T17:18:33.420Z,16.40
2023-04-18T17:21:00.021Z,16.30
2023-04-18T17:23:26.748Z,16.40
2023-04-18T17:25:53.299Z,16.27
2023-04-18T17:28:21.209Z,16.21
2023-04-18T17:30:47.777Z,16.15
2023-04-18T17:33:14.537Z,16.25
2023-04-18T17:35:44.063Z,16.18
2023-04-18T17:38:10.798Z,16.22
2023-04-18T17:40:37.346Z,16.27
2023-04-18T17:43:03.820Z,16.09
2023-04-18T17:45:30.540Z,15.66
2023-04-18T17:47:58.196Z,16.08
2023-04-18T17:50:24.983Z,15.91
2023-04-18T17:52:51.679Z,15.80
2023-04-18T17:55:18.699Z,15.92
2023-04-18T17:57:45.335Z,15.92
2023-04-18T18:00:13.829Z,15.89
2023-04-18T18:02:44.747Z,15.93
2023-04-18T18:05:13.355Z,15.77
2023-04-18T18:07:42.844Z,15.93
2023-04-18T18:10:10.060Z,15.77
2023-04-18T18:12:38.043Z,15.51
2023-04-18T18:15:05.222Z,15.65
2023-04-18T18:17:31.868Z,15.31
2023-04-18T18:19:58.383Z,15.57
2023-04-18T18:22:26.048Z,15.65
2023-04-18T18:24:52.825Z,15.49
2023-04-18T18:27:20.291Z,15.40
2023-04-18T18:29:48.031Z,15.49
2023-04-18T18:32:14.616Z,15.56
2023-04-18T18:34:41.124Z,15.18
2023-04-18T18:37:08.159Z,15.37
2023-04-18T18:39:34.862Z,15.46
2023-04-18T18:42:02.136Z,15.58
2023-04-18T18:44:28.640Z,15.71
2023-04-18T18:46:56.382Z,15.29
2023-04-18T18:49:23.485Z,15.51
2023-04-18T18:51:49.965Z,15.29
2023-04-18T18:54:16.542Z,15.24
2023-04-18T18:56:44.207Z,15.22
2023-04-18T18:59:11.121Z,15.02
2023-04-18T19:01:38.947Z,14.92
2023-04-18T19:04:05.696Z,14.98
2023-04-18T19:06:32.376Z,14.99
2023-04-18T19:08:59.035Z,15.25
2023-04-18T19:11:26.678Z,15.03
2023-04-18T19:13:53.246Z,14.93
2023-04-18T19:16:19.846Z,14.83
2023-04-18T19:18:47.326Z,15.21
2023-04-18T19:21:13.995Z,14.93
2023-04-18T19:23:41.853Z,15.07
2023-04-18T19:26:09.270Z,15.13
2023-04-18T19:28:36.026Z,14.74
2023-04-18T19:31:02.569Z,14.80
2023-04-18T19:33:29.281Z,14.91
2023-04-18T19:35:55.884Z,15.02
2023-04-18T19:38:22.422Z,15.09
2023-04-18T19:40:49.424Z,14.76
2023-04-18T19:43:16.073Z,14.96
2023-04-18T19:45:42.655Z,14.96
2023-04-18T19:48:09.338Z,15.02
2023-04-18T19:50:35.861Z,15.19
2023-04-18T19:53:02.374Z,15.05
2023-04-18T19:55:28.903Z,15.07
2023-04-18T19:57:56.579Z,15.10
2023-04-18T20:00:23.083Z,14.74
2023-04-18T20:02:49.708Z,14.77
2023-04-18T20:05:18.483Z,14.61
2023-04-18T20:07:45.033Z,14.81
2023-04-18T20:10:11.582Z,14.72
2023-04-18T20:12:38.027Z,14.92
2023-04-18T20:15:05.682Z,14.90
2023-04-18T20:17:34.385Z,14.74
2023-04-18T20:20:01.444Z,14.83
2023-04-18T20:22:28.180Z,14.93
2023-04-18T20:24:57.106Z,14.93
2023-04-18T20:27:24.076Z,15.04
2023-04-18T20:29:50.642Z,15.03
2023-04-18T20:32:17.227Z,14.68
2023-04-18T20:34:43.807Z,14.71
2023-04-18T20:37:10.258Z,14.75
2023-04-18T20:39:38.144Z,14.64
2023-04-18T20:42:04.870Z,14.56
2023-04-18T20:44:34.289Z,14.68
2023-04-18T20:47:01.073Z,14.75
2023-04-18T20:49:29.438Z,14.84
2023-04-18T20:51:55.934Z,14.70
2023-04-18T20:54:22.550Z,14.77
2023-04-18T20:56:49.166Z,14.62
2023-04-18T20:59:15.661Z,14.88
2023-04-18T21:01:42.626Z,14.84
2023-04-18T21:04:09.296Z,14.87
2023-04-18T21:06:36.643Z,14.72
2023-04-18T21:09:03.244Z,14.54
2023-04-18T21:11:29.752Z,14.79
2023-04-18T21:13:56.267Z,14.89
2023-04-18T21:16:23.950Z,14.70
2023-04-18T21:18:50.619Z,14.88
2023-04-18T21:21:17.687Z,14.84
2023-04-18T21:23:44.510Z,14.55
2023-04-18T21:26:13.073Z,14.44
2023-04-18T21:29:08.801Z,14.34
2023-04-18T21:31:35.445Z,14.33
2023-04-18T21:34:04.879Z,14.68
2023-04-18T21:36:32.105Z,14.22
2023-04-18T21:39:00.687Z,14.46
2023-04-18T21:41:27.504Z,14.56
2023-04-18T21:43:54.019Z,14.65
2023-04-18T21:46:20.762Z,14.55
2023-04-18T21:48:47.932Z,14.39
2023-04-18T21:51:16.206Z,14.54
2023-04-18T21:53:42.837Z,14.47
2023-04-18T21:56:09.635Z,14.62
2023-04-18T21:58:36.145Z,14.54
2023-04-18T22:01:03.127Z,14.34
2023-04-18T22:03:29.873Z,14.06
2023-04-18T22:05:56.646Z,14.39
2023-04-18T22:08:25.828Z,14.27
2023-04-18T22:10:57.800Z,13.86
2023-04-18T22:13:25.231Z,14.36
2023-04-18T22:15:51.803Z,14.21
2023-04-18T22:18:18.830Z,14.37
2023-04-18T22:20:46.833Z,14.27
2023-04-18T22:23:13.989Z,14.24
2023-04-18T22:25:40.877Z,14.45
2023-04-18T22:28:07.486Z,13.64
2023-04-18T22:30:34.896Z,14.03
2023-04-18T22:33:01.676Z,14.16
2023-04-18T22:35:28.266Z,14.26
2023-04-18T22:37:55.504Z,14.43
2023-04-18T22:40:22.109Z,14.32
2023-04-18T22:42:48.582Z,13.95
2023-04-18T22:45:15.509Z,14.24
2023-04-18T22:47:42.104Z,14.16
2023-04-18T22:50:08.853Z,14.14
2023-04-18T22:52:35.482Z,14.14
2023-04-18T22:55:02.854Z,14.38
2023-04-18T22:57:29.665Z,14.37
2023-04-18T22:59:56.553Z,14.48
2023-04-18T23:02:23.201Z,14.52
2023-04-18T23:04:50.558Z,14.50
2023-04-18T23:07:17.112Z,14.47
2023-04-18T23:09:43.592Z,14.45
2023-04-18T23:12:10.061Z,14.54
2023-04-18T23:14:36.567Z,14.37
2023-04-18T23:17:03.151Z,14.43
2023-04-18T23:19:29.702Z,14.48
2023-04-18T23:21:56.203Z,14.32
2023-04-18T23:24:22.715Z,14.32
2023-04-18T23:26:49.187Z,14.35
2023-04-18T23:29:15.656Z,14.44
2023-04-18T23:31:42.114Z,14.40
2023-04-18T23:34:09.823Z,14.40
2023-04-18T23:36:37.123Z,14.32
2023-04-18T23:39:04.121Z,14.35
2023-04-18T23:41:30.745Z,14.33
2023-04-18T23:43:57.118Z,14.34
2023-04-18T23:46:23.997Z,14.36
2023-04-18T23:48:50.856Z,14.12
2023-04-18T23:51:17.345Z,14.32
2023-04-18T23:53:43.887Z,14.25
2023-04-18T23:56:10.400Z,14.11
2023-04-18T23:58:36.860Z,14.19
